BST,Max TemperatureF,Mean TemperatureF,Min TemperatureF,Max Dew PointF,MeanDew PointF,Min DewpointF,Max Humidity, Mean Humidity, Min Humidity, Max Sea Level PressureIn, Mean Sea Level PressureIn, Min Sea Level PressureIn, Max VisibilityMiles, Mean VisibilityMiles, Min VisibilityMiles, Max Wind SpeedMPH, Mean Wind SpeedMPH, Max Gust SpeedMPH,PrecipitationIn, CloudCover, Events, WindDirDegrees
2013-3-1,,,,,,,,,,,,,,,,,,,,,,
2013-3-2,48,40,33,41,38,32,93,82,76,30.36,30.30,30.27,6,6,6,6,2,,0.00,4,,270
2013-3-3,46,42,37,41,39,36,100,83,76,30.24,30.19,30.15,6,6,4,5,1,,0.00,4,,324
2013-3-4,44,40,37,36,33,32,87,71,61,30.01,29.90,29.80,6,6,6,9,4,,0.00,2,,147
2013-3-5,50,40,30,36,34,27,93,70,54,29.68,29.65,29.59,4,3,2,7,2,,0.00,,,66
2013-3-6,41,39,37,37,36,34,93,86,81,29.68,29.64,29.62,3,2,1,18,15,,0.00,6,Rain,77
2013-3-7,44,42,41,43,40,39,100,90,81,29.56,29.51,29.44,2,2,1,29,12,40,0.00,5,Rain,76
2013-3-8,41,40,39,37,37,37,93,92,87,29.59,29.56,29.53,6,6,5,22,19,34,0.00,5,Rain,76
2013-3-9,,,,,,,,,,,,,,,,,,,,,,
2013-3-10,,,,,,,,,,,,,,,,,,,,,,
2013-3-11,32,30,28,27,22,18,93,72,55,30.06,30.05,30.04,6,5,0,22,12,37,0.00,2,Snow,52
2013-3-12,41,34,26,30,26,21,80,66,53,30.01,29.95,29.89,6,6,6,7,3,,0.00,3,,288
2013-3-13,41,37,33,28,26,23,81,60,49,29.92,29.90,29.89,6,6,6,8,5,,0.00,2,,353
2013-3-14,39,36,32,37,34,28,93,86,75,29.95,29.88,29.80,6,6,6,13,5,,0.00,5,Rain,237
2013-3-15,44,42,39,41,39,36,93,90,81,29.47,29.43,29.42,6,6,6,13,9,,0.00,6,Rain,209
2013-3-16,41,38,35,37,36,36,100,93,87,29.24,29.23,29.21,6,6,4,9,4,,0.00,7,Rain,282
2013-3-17,42,37,32,36,35,32,100,84,76,29.18,29.16,29.15,6,6,1,13,7,,0.00,4,Rain-Snow,172
2013-3-18,,,,,,,,,,,,,,,,,,,,,,
2013-3-19,,,,,,,,,,,,,,,,,,,,,,
2013-3-20,39,37,35,34,31,28,93,79,70,29.92,29.84,29.77,6,6,6,17,15,,0.00,3,Rain,85
2013-3-21,39,36,33,30,28,27,81,68,61,30.06,30.03,29.98,6,6,6,18,12,,0.00,3,,97
2013-3-22,33,32,32,30,29,28,93,85,81,29.89,29.89,29.86,6,3,1,29,26,46,0.00,8,Snow,93
2013-3-23,33,32,32,28,27,25,87,77,70,30.06,30.03,29.98,6,6,6,23,16,40,0.00,6,Snow,101
2013-3-24,37,35,33,25,24,23,70,64,60,30.15,30.14,30.12,6,6,6,30,23,44,0.00,3,,86
2013-3-25,35,34,33,28,27,25,81,75,65,30.21,30.20,30.18,6,6,6,23,17,31,0.00,5,Snow,78
2013-3-26,37,35,33,30,27,27,87,74,65,30.15,30.12,30.09,6,6,6,22,14,,0.00,4,Snow,77
2013-3-27,37,34,32,30,29,27,93,79,65,30.06,30.04,30.04,6,6,2,16,11,,0.00,3,Snow,63
2013-3-28,41,38,35,27,25,23,70,58,52,30.06,30.04,30.01,6,6,6,16,12,,0.00,3,,75
2013-3-29,41,37,33,30,26,23,87,65,52,29.98,29.93,29.89,6,6,6,14,7,,0.00,3,,77
2013-3-30,,,,,,,,,,,,,,,,,,,,,,
2013-3-30,,,,,,,,,,,,,,,,,,,,,,
2013-4-1,,,,,,,,,,,,,,,,,,,,,,